Weather at Hranice Airfield

Public forecast

Using degrees Celsius for public forecast. Weather courtesy of forecast.io.

Closest aviation weather report (METAR) to Hranice Airfield

Closest report is Ostrava Leos Janáček Airport, 18.2 nm (33.7 km) ENE.

2024/07/24 06:00 (retrieved 17 minutes ago)

LKMT 240600Z 25006KT CAVOK 19/16 Q1014 NOSIG

Closest aviation forecast (TAF) to Hranice Airfield

Closest forecast is Ostrava Leos Janáček Airport, 18.2 nm (33.7 km) ENE.

2024/07/24 06:33 (retrieved 0 seconds ago)

TAF TAF LKMT 240500Z 2406/2506 35006KT CAVOK TEMPO 2406/2417 08008KT 6000 SHRA SCT020 BKN030TCU PROB40 TEMPO 2408/2416 35012G24KT 4500 TSRA SCT025CB BECMG 2423/2501 34004KT 9999 SCT020